createdAt,value
2023-04-17T00:01:12.877Z,22.90
2023-04-17T00:03:41.522Z,22.80
2023-04-17T00:06:10.103Z,25.03
2023-04-17T00:08:38.988Z,26.43
2023-04-17T00:11:08.962Z,22.63
2023-04-17T00:13:39.162Z,22.47
2023-04-17T00:16:12.997Z,25.87
2023-04-17T00:18:41.570Z,22.90
2023-04-17T00:21:09.911Z,24.50
2023-04-17T00:23:38.847Z,24.00
2023-04-17T00:26:07.373Z,24.40
2023-04-17T00:28:35.913Z,23.17
2023-04-17T00:31:06.584Z,27.60
2023-04-17T00:33:35.334Z,26.83
2023-04-17T00:36:03.818Z,23.90
2023-04-17T00:38:32.219Z,23.57
2023-04-17T00:41:01.161Z,24.37
2023-04-17T00:43:31.632Z,24.37
2023-04-17T00:46:00.358Z,22.30
2023-04-17T00:48:30.130Z,26.13
2023-04-17T00:51:02.249Z,23.07
2023-04-17T00:53:31.639Z,22.47
2023-04-17T00:56:04.638Z,23.43
2023-04-17T00:58:33.700Z,23.33
2023-04-17T01:01:02.242Z,24.00
2023-04-17T01:03:33.343Z,23.20
2023-04-17T01:06:03.793Z,20.00
2023-04-17T01:08:41.342Z,16.53
2023-04-17T01:11:09.935Z,16.73
2023-04-17T01:13:46.876Z,14.87
2023-04-17T01:16:16.325Z,13.20
2023-04-17T01:18:47.775Z,24.27
2023-04-17T01:21:16.807Z,20.67
2023-04-17T01:23:48.606Z,20.23
2023-04-17T01:26:22.984Z,19.37
2023-04-17T01:28:52.895Z,18.87
2023-04-17T01:31:21.993Z,20.57
2023-04-17T01:33:51.331Z,20.07
2023-04-17T01:36:20.731Z,20.63
2023-04-17T01:38:51.784Z,19.47
2023-04-17T01:41:22.633Z,20.93
2023-04-17T01:43:51.098Z,20.50
2023-04-17T01:46:19.769Z,21.90
2023-04-17T01:48:48.477Z,24.90
2023-04-17T01:51:16.893Z,19.53
2023-04-17T01:53:45.370Z,19.13
2023-04-17T01:56:14.251Z,20.17
2023-04-17T01:58:45.097Z,18.40
2023-04-17T02:01:14.228Z,19.40
2023-04-17T02:03:42.706Z,19.20
2023-04-17T02:06:14.038Z,19.43
2023-04-17T02:08:42.972Z,19.83
2023-04-17T02:11:13.540Z,19.20
2023-04-17T02:13:45.252Z,17.57
2023-04-17T02:16:13.545Z,17.77
2023-04-17T02:18:49.236Z,19.87
2023-04-17T02:21:19.783Z,19.07
2023-04-17T02:23:55.025Z,18.63
2023-04-17T02:26:32.245Z,17.70
2023-04-17T02:29:12.290Z,17.67
2023-04-17T02:31:42.381Z,17.90
2023-04-17T02:34:23.151Z,16.10
2023-04-17T02:37:00.737Z,16.20
2023-04-17T02:39:35.195Z,15.13
2023-04-17T02:42:04.046Z,15.60
2023-04-17T02:44:33.679Z,16.40
2023-04-17T02:47:03.152Z,16.90
2023-04-17T02:49:34.753Z,16.73
2023-04-17T02:52:03.153Z,16.37
2023-04-17T02:54:31.906Z,17.17
2023-04-17T02:57:01.866Z,17.93
2023-04-17T02:59:30.938Z,17.87
2023-04-17T03:02:01.084Z,19.70
2023-04-17T03:04:30.087Z,16.50
2023-04-17T03:07:00.385Z,17.07
2023-04-17T03:09:29.470Z,16.60
2023-04-17T03:11:58.140Z,17.33
2023-04-17T03:14:27.001Z,16.00
2023-04-17T03:16:55.253Z,16.60
2023-04-17T03:19:25.487Z,15.73
2023-04-17T03:21:53.995Z,17.07
2023-04-17T03:24:22.333Z,15.37
2023-04-17T03:26:51.800Z,14.37
2023-04-17T03:29:22.117Z,17.37
2023-04-17T03:31:50.581Z,17.47
2023-04-17T03:34:19.523Z,16.33
2023-04-17T03:36:49.631Z,18.30
2023-04-17T03:39:18.021Z,16.77
2023-04-17T03:41:47.112Z,17.70
2023-04-17T03:44:17.313Z,16.80
2023-04-17T03:46:47.053Z,17.63
2023-04-17T03:49:16.772Z,17.57
2023-04-17T03:51:45.472Z,16.37
2023-04-17T03:54:20.478Z,18.23
2023-04-17T03:56:53.550Z,16.73
2023-04-17T03:59:23.442Z,17.97
2023-04-17T04:01:54.285Z,17.10
2023-04-17T04:04:25.087Z,16.67
2023-04-17T04:07:01.831Z,15.97
2023-04-17T04:09:32.731Z,19.77
2023-04-17T04:12:02.295Z,17.33
2023-04-17T04:14:33.954Z,17.70
2023-04-17T04:17:04.763Z,17.50
2023-04-17T04:19:34.200Z,18.23
2023-04-17T04:22:06.684Z,17.13
2023-04-17T04:24:43.995Z,18.07
2023-04-17T04:27:18.178Z,16.97
2023-04-17T04:29:50.285Z,17.27
2023-04-17T04:32:21.682Z,18.77
2023-04-17T04:34:51.992Z,16.93
2023-04-17T04:37:21.970Z,17.47
2023-04-17T04:39:54.128Z,17.03
2023-04-17T04:42:25.222Z,18.27
2023-04-17T04:45:19.908Z,17.00
2023-04-17T04:47:48.518Z,17.40
2023-04-17T04:50:18.046Z,17.33
2023-04-17T04:52:47.299Z,16.07
2023-04-17T04:55:31.097Z,17.00
2023-04-17T04:58:00.872Z,17.53
2023-04-17T05:00:30.022Z,16.73
2023-04-17T05:03:00.702Z,16.23
2023-04-17T05:05:30.342Z,16.50
2023-04-17T05:08:00.736Z,16.03
2023-04-17T05:10:34.787Z,16.70
2023-04-17T05:13:06.300Z,17.33
2023-04-17T05:15:34.864Z,17.57
2023-04-17T05:18:04.922Z,15.50
2023-04-17T05:20:36.505Z,17.50
2023-04-17T05:23:07.590Z,17.53
2023-04-17T05:25:37.867Z,16.37
2023-04-17T05:28:09.740Z,15.63
2023-04-17T05:30:38.740Z,18.10
2023-04-17T05:33:15.511Z,17.43
2023-04-17T05:35:49.680Z,16.60
2023-04-17T05:38:19.115Z,17.90
2023-04-17T05:40:49.829Z,18.57
2023-04-17T05:43:18.686Z,17.30
2023-04-17T05:45:48.414Z,18.13
2023-04-17T05:48:17.340Z,18.97
2023-04-17T05:50:47.325Z,17.57
2023-04-17T05:53:15.998Z,16.90
2023-04-17T05:55:52.564Z,16.20
2023-04-17T05:58:24.232Z,12.83
2023-04-17T06:00:56.931Z,16.60
2023-04-17T06:03:28.120Z,18.83
2023-04-17T06:06:11.845Z,17.43
2023-04-17T06:08:41.037Z,20.53
2023-04-17T06:11:10.948Z,17.80
2023-04-17T06:13:39.423Z,17.63
2023-04-17T06:16:08.255Z,17.63
2023-04-17T06:18:36.872Z,18.87
2023-04-17T06:21:06.137Z,16.27
2023-04-17T06:23:34.770Z,19.30
2023-04-17T06:26:03.451Z,16.73
2023-04-17T06:28:33.476Z,17.73
2023-04-17T06:31:02.305Z,19.00
2023-04-17T06:33:30.894Z,18.43
2023-04-17T06:35:59.168Z,17.33
2023-04-17T06:38:36.588Z,16.53
2023-04-17T06:41:05.788Z,17.93
2023-04-17T06:43:36.977Z,17.77
2023-04-17T06:46:14.522Z,16.80
2023-04-17T06:48:43.066Z,17.23
2023-04-17T06:51:11.807Z,18.73
2023-04-17T06:53:40.417Z,18.73
2023-04-17T06:56:09.171Z,18.93
2023-04-17T06:58:44.407Z,17.67
2023-04-17T07:01:13.578Z,20.50
2023-04-17T07:03:43.249Z,19.77
2023-04-17T07:06:12.367Z,17.10
2023-04-17T07:08:40.893Z,17.40
2023-04-17T07:11:10.174Z,17.80
2023-04-17T07:13:40.618Z,20.40
2023-04-17T07:16:09.219Z,18.67
2023-04-17T07:18:38.314Z,19.03
2023-04-17T07:21:08.763Z,19.17
2023-04-17T07:23:37.160Z,17.90
2023-04-17T07:26:05.764Z,17.73
2023-04-17T07:28:34.658Z,16.60
2023-04-17T07:31:08.862Z,18.40
2023-04-17T07:33:40.335Z,16.57
2023-04-17T07:36:11.332Z,17.57
2023-04-17T07:38:41.250Z,16.07
2023-04-17T07:41:09.776Z,15.10
2023-04-17T07:43:38.293Z,15.43
2023-04-17T07:46:08.709Z,17.23
2023-04-17T07:48:37.118Z,15.50
2023-04-17T07:51:06.072Z,16.00
2023-04-17T07:53:36.106Z,15.40
2023-04-17T07:56:05.559Z,14.70
2023-04-17T07:58:35.912Z,14.27
2023-04-17T08:01:05.907Z,13.07
2023-04-17T08:03:37.155Z,13.87
2023-04-17T08:06:05.993Z,14.50
2023-04-17T08:08:34.770Z,13.60
2023-04-17T08:11:03.283Z,14.50
2023-04-17T08:13:32.842Z,13.80
2023-04-17T08:16:01.658Z,12.10
2023-04-17T08:18:32.011Z,12.27
2023-04-17T08:21:03.315Z,12.53
2023-04-17T08:23:32.529Z,10.90
2023-04-17T08:26:01.148Z,10.33
2023-04-17T08:28:30.256Z,9.40
2023-04-17T08:30:59.289Z,10.83
2023-04-17T08:33:28.138Z,10.20
2023-04-17T08:36:03.954Z,9.50
2023-04-17T08:38:33.781Z,9.83
2023-04-17T08:41:08.044Z,9.43
2023-04-17T08:43:37.963Z,8.50
2023-04-17T08:46:07.656Z,9.13
2023-04-17T08:48:36.212Z,8.70
2023-04-17T08:51:06.365Z,9.03
2023-04-17T08:53:34.899Z,10.17
2023-04-17T08:56:08.982Z,8.97
2023-04-17T08:58:38.677Z,8.80
2023-04-17T09:01:11.569Z,8.93
2023-04-17T09:03:44.267Z,8.00
2023-04-17T09:06:16.008Z,8.57
2023-04-17T09:08:57.903Z,9.53
2023-04-17T09:11:27.421Z,8.37
2023-04-17T09:13:56.150Z,8.83
2023-04-17T09:16:25.938Z,8.20
2023-04-17T09:19:06.793Z,8.47
2023-04-17T09:21:36.886Z,8.50
2023-04-17T09:24:06.984Z,7.93
2023-04-17T09:26:35.915Z,8.33
2023-04-17T09:29:11.552Z,7.60
2023-04-17T09:31:43.135Z,8.23
2023-04-17T09:34:13.189Z,6.53
2023-04-17T09:36:44.827Z,6.70
2023-04-17T09:39:20.368Z,7.03
2023-04-17T09:41:48.832Z,6.73
2023-04-17T09:44:27.927Z,6.83
2023-04-17T09:46:57.756Z,7.20
2023-04-17T09:49:34.901Z,7.07
2023-04-17T09:52:06.796Z,7.33
2023-04-17T09:54:38.032Z,7.57
2023-04-17T09:57:08.985Z,7.27
2023-04-17T09:59:40.117Z,7.53
2023-04-17T10:02:10.099Z,6.83
2023-04-17T10:04:41.205Z,7.47
2023-04-17T10:07:12.733Z,6.80
2023-04-17T10:09:46.155Z,6.83
2023-04-17T10:12:16.788Z,7.00
2023-04-17T10:14:48.309Z,6.67
2023-04-17T10:17:26.118Z,6.60
2023-04-17T10:19:54.954Z,7.13
2023-04-17T10:22:34.871Z,6.73
2023-04-17T10:25:22.291Z,6.30
2023-04-17T10:27:53.857Z,6.57
2023-04-17T10:30:23.914Z,6.27
2023-04-17T10:33:24.765Z,5.63
2023-04-17T10:35:54.176Z,5.80
2023-04-17T10:38:36.079Z,5.40
2023-04-17T10:41:09.396Z,5.70
2023-04-17T10:43:43.034Z,5.67
2023-04-17T10:46:13.420Z,6.17
2023-04-17T10:48:49.677Z,5.50
2023-04-17T10:51:41.122Z,5.10
2023-04-17T10:54:15.873Z,5.13
2023-04-17T10:56:48.499Z,5.47
2023-04-17T10:59:17.991Z,5.00
2023-04-17T11:02:04.331Z,4.63
2023-04-17T11:04:34.010Z,5.07
2023-04-17T11:07:02.927Z,5.10
2023-04-17T11:09:32.900Z,5.20
2023-04-17T11:12:02.994Z,5.00
2023-04-17T11:14:34.032Z,4.60
2023-04-17T11:17:03.548Z,4.30
2023-04-17T11:19:34.786Z,4.27
2023-04-17T11:22:03.381Z,4.27
2023-04-17T11:24:33.611Z,4.63
2023-04-17T11:27:04.054Z,4.43
2023-04-17T11:29:32.630Z,4.30
2023-04-17T11:32:01.506Z,4.57
2023-04-17T11:34:31.389Z,4.20
2023-04-17T11:37:02.409Z,4.30
2023-04-17T11:39:35.848Z,3.63
2023-04-17T11:42:05.087Z,4.00
2023-04-17T11:44:33.817Z,4.07
2023-04-17T11:47:04.102Z,3.60
2023-04-17T11:49:34.121Z,3.57
2023-04-17T11:52:05.518Z,3.33
2023-04-17T11:54:37.953Z,3.60
2023-04-17T11:57:11.919Z,3.30
2023-04-17T11:59:42.716Z,3.23
2023-04-17T12:02:12.811Z,3.40
2023-04-17T12:04:41.472Z,3.43
2023-04-17T12:07:22.108Z,3.30
2023-04-17T12:09:58.026Z,3.20
2023-04-17T12:12:26.419Z,3.37
2023-04-17T12:14:54.795Z,3.10
2023-04-17T12:17:24.778Z,3.40
2023-04-17T12:19:53.187Z,2.80
2023-04-17T12:22:23.465Z,3.43
2023-04-17T12:24:52.004Z,3.37
2023-04-17T12:27:21.786Z,3.30
2023-04-17T12:29:50.487Z,3.03
2023-04-17T12:32:19.032Z,3.53
2023-04-17T12:34:47.341Z,3.20
2023-04-17T12:37:16.211Z,3.67
2023-04-17T12:39:45.054Z,4.10
2023-04-17T12:42:13.993Z,4.63
2023-04-17T12:44:43.795Z,4.40
2023-04-17T12:47:12.252Z,4.67
2023-04-17T12:49:40.803Z,4.47
2023-04-17T12:52:09.730Z,4.63
2023-04-17T12:54:40.656Z,4.33
2023-04-17T12:57:09.937Z,4.53
2023-04-17T12:59:39.746Z,4.73
2023-04-17T13:02:09.694Z,4.40
2023-04-17T13:04:38.562Z,4.80
2023-04-17T13:07:07.103Z,5.03
2023-04-17T13:09:36.920Z,5.10
2023-04-17T13:12:05.717Z,4.70
2023-04-17T13:14:34.787Z,4.53
2023-04-17T13:17:04.055Z,5.10
2023-04-17T13:19:35.150Z,4.93
2023-04-17T13:22:04.188Z,4.90
2023-04-17T13:24:33.964Z,4.87
2023-04-17T13:27:02.836Z,5.17
2023-04-17T13:29:31.636Z,5.43
2023-04-17T13:32:00.159Z,5.67
2023-04-17T13:34:28.740Z,5.23
2023-04-17T13:36:58.750Z,5.00
2023-04-17T13:39:27.467Z,5.30
2023-04-17T13:41:57.574Z,4.57
2023-04-17T13:44:26.163Z,4.07
2023-04-17T13:46:54.581Z,3.63
2023-04-17T13:49:23.074Z,3.53
2023-04-17T13:51:51.525Z,3.30
2023-04-17T13:54:22.044Z,3.47
2023-04-17T13:56:50.660Z,3.20
2023-04-17T13:59:18.938Z,3.20
2023-04-17T14:01:47.411Z,3.17
2023-04-17T14:04:16.649Z,3.20
2023-04-17T14:06:47.072Z,3.20
2023-04-17T14:09:16.605Z,3.77
2023-04-17T14:11:46.406Z,3.10
2023-04-17T14:14:14.718Z,3.30
2023-04-17T14:16:43.886Z,3.10
2023-04-17T14:19:14.753Z,3.50
2023-04-17T14:21:44.142Z,3.30
2023-04-17T14:24:12.649Z,2.87
2023-04-17T14:26:41.297Z,3.17
2023-04-17T14:29:13.955Z,2.63
2023-04-17T14:31:43.038Z,3.07
2023-04-17T14:34:11.425Z,3.10
2023-04-17T14:39:10.903Z,3.30
2023-04-17T14:41:39.786Z,3.20
2023-04-17T14:44:08.331Z,3.07
2023-04-17T14:46:38.242Z,3.43
2023-04-17T14:49:07.075Z,3.10
2023-04-17T14:51:35.443Z,3.63
2023-04-17T14:54:03.966Z,2.93
2023-04-17T14:56:32.368Z,3.37
2023-04-17T14:59:01.624Z,3.63
2023-04-17T15:01:30.111Z,6.60
2023-04-17T15:04:00.437Z,3.07
2023-04-17T15:06:29.102Z,3.43
2023-04-17T15:08:57.751Z,3.50
2023-04-17T15:11:26.048Z,3.53
2023-04-17T15:13:55.337Z,3.50
2023-04-17T15:16:23.855Z,3.33
2023-04-17T15:18:52.184Z,3.33
2023-04-17T15:21:22.031Z,3.30
2023-04-17T15:23:50.378Z,3.10
2023-04-17T15:26:18.833Z,3.07
2023-04-17T15:28:47.213Z,3.00
2023-04-17T15:31:17.868Z,2.80
2023-04-17T15:33:47.692Z,3.10
2023-04-17T15:36:16.662Z,2.80
2023-04-17T15:38:46.501Z,3.93
2023-04-17T15:41:15.037Z,2.90
2023-04-17T15:43:44.503Z,3.20
2023-04-17T15:46:12.937Z,3.07
2023-04-17T15:48:41.339Z,2.70
2023-04-17T15:51:09.936Z,2.50
2023-04-17T15:53:38.654Z,2.70
2023-04-17T15:56:09.563Z,2.80
2023-04-17T15:58:37.995Z,2.80
2023-04-17T16:01:06.792Z,2.60
2023-04-17T16:03:35.769Z,2.90
2023-04-17T16:06:04.274Z,2.73
2023-04-17T16:08:32.791Z,2.90
2023-04-17T16:11:01.131Z,2.60
2023-04-17T16:13:30.950Z,2.80
2023-04-17T16:15:59.688Z,2.83
2023-04-17T16:18:28.969Z,2.37
2023-04-17T16:20:59.096Z,2.87
2023-04-17T16:23:27.401Z,3.10
2023-04-17T16:25:55.818Z,3.13
2023-04-17T16:28:25.697Z,3.03
2023-04-17T16:30:55.421Z,2.73
2023-04-17T16:33:23.835Z,2.77
2023-04-17T16:35:54.025Z,3.40
2023-04-17T16:38:22.398Z,2.93
2023-04-17T16:40:53.581Z,3.07
2023-04-17T16:43:24.176Z,3.00
2023-04-17T16:45:52.699Z,2.90
2023-04-17T16:48:22.577Z,2.90
2023-04-17T16:50:53.030Z,2.60
2023-04-17T16:53:21.412Z,2.57
2023-04-17T16:55:49.899Z,2.67
2023-04-17T16:58:18.522Z,2.90
2023-04-17T17:00:46.997Z,2.63
2023-04-17T17:03:15.673Z,2.50
2023-04-17T17:05:45.485Z,2.20
2023-04-17T17:08:14.644Z,2.23
2023-04-17T17:10:43.130Z,2.33
2023-04-17T17:13:11.596Z,2.37
2023-04-17T17:15:42.987Z,2.20
2023-04-17T17:18:12.401Z,2.40
2023-04-17T17:20:40.629Z,2.20
2023-04-17T17:23:10.944Z,2.17
2023-04-17T17:25:39.242Z,2.33
2023-04-17T17:28:08.167Z,2.50
2023-04-17T17:30:36.814Z,2.27
2023-04-17T17:33:05.190Z,1.90
2023-04-17T17:35:34.886Z,2.13
2023-04-17T17:38:03.747Z,2.00
2023-04-17T17:40:33.588Z,1.63
2023-04-17T17:43:02.277Z,1.83
2023-04-17T17:45:31.271Z,1.90
2023-04-17T17:48:00.985Z,2.40
2023-04-17T17:50:29.292Z,2.17
2023-04-17T17:52:58.857Z,2.00
2023-04-17T17:55:27.536Z,2.47
2023-04-17T17:57:57.360Z,2.13
2023-04-17T18:00:28.030Z,2.10
2023-04-17T18:02:58.881Z,2.00
2023-04-17T18:05:27.486Z,1.60
2023-04-17T18:07:55.891Z,2.00
2023-04-17T18:10:24.264Z,1.80
2023-04-17T18:12:52.638Z,2.10
2023-04-17T18:15:22.433Z,1.93
2023-04-17T18:17:51.618Z,1.87
2023-04-17T18:20:20.332Z,2.00
2023-04-17T18:22:49.138Z,2.20
2023-04-17T18:25:17.653Z,2.13
2023-04-17T18:27:47.310Z,1.90
2023-04-17T18:30:16.839Z,2.43
2023-04-17T18:32:46.802Z,2.10
2023-04-17T18:35:15.364Z,1.90
2023-04-17T18:37:45.378Z,2.00
2023-04-17T18:40:14.373Z,2.17
2023-04-17T18:42:52.701Z,2.27
2023-04-17T18:45:21.970Z,2.13
2023-04-17T18:47:51.805Z,2.20
2023-04-17T18:50:20.264Z,2.40
2023-04-17T18:52:51.037Z,2.73
2023-04-17T18:55:19.843Z,3.40
2023-04-17T18:57:48.153Z,3.07
2023-04-17T19:00:16.910Z,3.03
2023-04-17T19:02:45.454Z,3.60
2023-04-17T19:05:15.368Z,3.40
2023-04-17T19:07:44.441Z,3.60
2023-04-17T19:10:12.936Z,3.63
2023-04-17T19:12:43.254Z,3.20
2023-04-17T19:15:12.504Z,3.60
2023-04-17T19:17:41.033Z,3.00
2023-04-17T19:20:15.831Z,3.43
2023-04-17T19:22:44.193Z,3.10
2023-04-17T19:25:12.815Z,3.50
2023-04-17T19:27:41.293Z,3.90
2023-04-17T19:30:11.032Z,3.67
2023-04-17T19:32:39.819Z,3.77
2023-04-17T19:35:09.733Z,3.87
2023-04-17T19:37:40.005Z,4.23
2023-04-17T19:40:21.565Z,3.87
2023-04-17T19:42:53.545Z,3.70
2023-04-17T19:45:21.985Z,4.17
2023-04-17T19:47:56.195Z,4.07
2023-04-17T19:50:26.422Z,4.20
2023-04-17T19:52:58.860Z,4.70
2023-04-17T19:55:27.220Z,4.23
2023-04-17T19:57:57.070Z,4.03
2023-04-17T20:00:26.080Z,4.27
2023-04-17T20:02:54.623Z,4.27
2023-04-17T20:05:23.565Z,4.57
2023-04-17T20:07:51.952Z,4.50
2023-04-17T20:10:21.902Z,5.20
2023-04-17T20:12:50.903Z,4.80
2023-04-17T20:15:22.065Z,4.67
2023-04-17T20:17:51.204Z,4.90
2023-04-17T20:20:19.691Z,4.70
2023-04-17T20:22:50.358Z,5.00
2023-04-17T20:25:19.543Z,5.33
2023-04-17T20:27:50.234Z,5.20
2023-04-17T20:30:20.252Z,4.80
2023-04-17T20:32:48.970Z,4.90
2023-04-17T20:35:17.995Z,5.37
2023-04-17T20:37:46.701Z,6.00
2023-04-17T20:40:15.360Z,5.93
2023-04-17T20:42:44.491Z,5.67
2023-04-17T20:45:14.407Z,5.80
2023-04-17T20:47:55.954Z,5.93
2023-04-17T20:50:25.497Z,6.27
2023-04-17T20:52:54.077Z,5.60
2023-04-17T20:55:22.453Z,5.80
2023-04-17T20:57:50.784Z,5.77
2023-04-17T21:00:21.175Z,6.17
2023-04-17T21:02:49.651Z,6.23
2023-04-17T21:05:19.307Z,5.97
2023-04-17T21:07:49.491Z,6.20
2023-04-17T21:10:20.882Z,6.87
2023-04-17T21:12:49.254Z,6.70
2023-04-17T21:15:21.375Z,6.20
2023-04-17T21:17:49.862Z,6.53
2023-04-17T21:20:19.730Z,6.80
2023-04-17T21:22:48.028Z,5.77
2023-04-17T21:25:17.047Z,5.93
2023-04-17T21:27:45.356Z,6.10
2023-04-17T21:30:14.056Z,5.50
2023-04-17T21:32:44.257Z,5.93
2023-04-17T21:35:12.657Z,5.47
2023-04-17T21:37:41.147Z,6.60
2023-04-17T21:40:10.726Z,6.00
2023-04-17T21:42:39.179Z,5.60
2023-04-17T21:45:08.719Z,5.50
2023-04-17T21:47:37.090Z,5.67
2023-04-17T21:50:08.008Z,5.83
2023-04-17T21:52:36.403Z,5.67
2023-04-17T21:55:07.749Z,6.67
2023-04-17T21:57:36.770Z,6.70
2023-04-17T22:00:06.300Z,6.30
2023-04-17T22:02:35.056Z,6.83
2023-04-17T22:05:04.531Z,7.07
2023-04-17T22:07:43.810Z,6.53
2023-04-17T22:10:19.950Z,7.10
2023-04-17T22:12:49.103Z,7.80
2023-04-17T22:15:17.522Z,6.90
2023-04-17T22:17:47.103Z,6.73
2023-04-17T22:20:15.580Z,8.00
2023-04-17T22:22:45.741Z,7.30
2023-04-17T22:25:14.396Z,7.73
2023-04-17T22:27:42.907Z,8.00
2023-04-17T22:30:11.625Z,6.97
2023-04-17T22:32:39.984Z,7.60
2023-04-17T22:35:09.862Z,8.20
2023-04-17T22:37:38.309Z,7.83
2023-04-17T22:40:09.830Z,8.27
2023-04-17T22:42:38.349Z,7.90
2023-04-17T22:45:07.437Z,9.03
2023-04-17T22:47:35.774Z,8.57
2023-04-17T22:50:05.570Z,9.40
2023-04-17T22:52:34.003Z,7.87
2023-04-17T22:55:02.321Z,8.47
2023-04-17T22:57:32.559Z,8.57
2023-04-17T23:00:01.116Z,9.30
2023-04-17T23:02:29.514Z,8.53
2023-04-17T23:04:58.069Z,7.17
2023-04-17T23:07:26.684Z,9.07
2023-04-17T23:09:54.994Z,9.07
2023-04-17T23:12:23.380Z,8.90
2023-04-17T23:14:53.137Z,8.00
2023-04-17T23:17:22.074Z,9.33
2023-04-17T23:19:50.840Z,8.77
2023-04-17T23:22:19.793Z,10.03
2023-04-17T23:24:49.427Z,10.03
2023-04-17T23:27:17.635Z,10.23
2023-04-17T23:29:45.926Z,10.03
2023-04-17T23:32:16.638Z,9.53
2023-04-17T23:34:45.237Z,10.87
2023-04-17T23:37:13.817Z,10.23
2023-04-17T23:39:42.797Z,10.40
2023-04-17T23:42:11.130Z,10.07
2023-04-17T23:44:39.767Z,10.27
2023-04-17T23:47:10.116Z,10.00
2023-04-17T23:49:40.317Z,10.57
2023-04-17T23:52:08.716Z,9.57
2023-04-17T23:54:37.070Z,10.17
2023-04-17T23:57:05.731Z,10.13
2023-04-17T23:59:34.065Z,9.83
